Time,TemperatureF,DewpointF,PressureIn,WindDirection,WindDirectionDegrees,WindSpeedMPH,WindSpeedGustMPH,Humidity,HourlyPrecipIn,Conditions,Clouds,dailyrainin,SoftwareType,DateUTC
2013-03-16 00:02:00,46.0,39.0,-100.00,SSW,200,6.0,8.0,76,-99.99,,,-99.99,,2013-03-16 07:02:00,
2013-03-16 00:10:00,45.0,39.0,-100.00,SSE,165,2.0,5.0,79,-99.99,,,-99.99,,2013-03-16 07:10:00,
2013-03-16 01:02:00,45.0,39.0,-100.00,SSE,165,2.0,5.0,79,-99.99,,,-99.99,,2013-03-16 08:02:00,
2013-03-16 01:10:00,45.0,39.0,-100.00,South,175,3.0,7.0,79,-99.99,,,-99.99,,2013-03-16 08:10:00,
2013-03-16 02:01:00,45.0,39.0,-100.00,South,175,3.0,7.0,79,-99.99,,,-99.99,,2013-03-16 09:01:00,
2013-03-16 02:10:00,44.0,39.0,-100.00,South,185,3.0,8.0,82,-99.99,,,-99.99,,2013-03-16 09:10:00,
2013-03-16 03:03:00,44.0,39.0,-100.00,South,185,3.0,8.0,82,-99.99,,,-99.99,,2013-03-16 10:03:00,
2013-03-16 03:10:00,43.0,39.0,-100.00,SSW,200,7.0,10.0,85,-99.99,,,-99.99,,2013-03-16 10:10:00,
2013-03-16 04:03:00,43.0,39.0,-100.00,SSW,200,7.0,10.0,85,-99.99,,,-99.99,,2013-03-16 11:03:00,
2013-03-16 04:10:00,41.0,38.0,-100.00,South,190,5.0,8.0,88,-99.99,,,-99.99,,2013-03-16 11:10:00,
2013-03-16 05:02:00,41.0,38.0,-100.00,South,190,5.0,8.0,88,-99.99,,,-99.99,,2013-03-16 12:02:00,
2013-03-16 05:10:00,41.0,38.0,-100.00,South,190,5.0,7.0,88,-99.99,,,-99.99,,2013-03-16 12:10:00,
2013-03-16 06:02:00,41.0,38.0,-100.00,South,190,5.0,7.0,88,-99.99,,,-99.99,,2013-03-16 13:02:00,
2013-03-16 06:10:00,41.0,39.0,-100.00,South,180,6.0,9.0,92,-99.99,,,-99.99,,2013-03-16 13:10:00,
2013-03-16 07:02:00,41.0,39.0,-100.00,South,180,6.0,9.0,92,-99.99,,,-99.99,,2013-03-16 14:02:00,
2013-03-16 08:02:00,41.0,38.0,-100.00,South,190,6.0,9.0,88,-99.99,,,-99.99,,2013-03-16 15:02:00,
2013-03-16 08:10:00,41.0,38.0,-100.00,South,180,5.0,9.0,88,-99.99,,,-99.99,,2013-03-16 15:10:00,
2013-03-16 09:03:00,41.0,38.0,-100.00,South,180,5.0,9.0,88,-99.99,,,-99.99,,2013-03-16 16:03:00,
2013-03-16 09:10:00,43.0,39.0,-100.00,South,180,6.0,13.0,85,-99.99,,,-99.99,,2013-03-16 16:10:00,
2013-03-16 10:03:00,43.0,39.0,-100.00,South,180,6.0,13.0,85,-99.99,,,-99.99,,2013-03-16 17:03:00,
2013-03-16 10:10:00,44.0,39.0,-100.00,SSW,210,9.0,15.0,82,-99.99,,,-99.99,,2013-03-16 17:10:00,
2013-03-16 11:02:00,44.0,39.0,-100.00,SSW,210,9.0,15.0,82,-99.99,,,-99.99,,2013-03-16 18:02:00,
2013-03-16 11:10:00,46.0,39.0,-100.00,SW,215,9.0,16.0,76,-99.99,,,-99.99,,2013-03-16 18:10:00,
2013-03-16 12:02:00,46.0,39.0,-100.00,SW,215,9.0,16.0,76,-99.99,,,-99.99,,2013-03-16 19:02:00,
2013-03-16 12:10:00,49.0,39.0,-100.00,SW,235,10.0,17.0,68,-99.99,,,-99.99,,2013-03-16 19:10:00,
2013-03-16 13:02:00,49.0,39.0,-100.00,SW,235,10.0,17.0,68,-99.99,,,-99.99,,2013-03-16 20:02:00,
2013-03-16 13:10:00,50.0,39.0,-100.00,SSW,195,9.0,17.0,65,-99.99,,,-99.99,,2013-03-16 20:10:00,
2013-03-16 14:02:00,50.0,39.0,-100.00,SSW,195,9.0,17.0,65,-99.99,,,-99.99,,2013-03-16 21:02:00,
2013-03-16 14:10:00,50.0,37.0,-100.00,SSW,210,10.0,21.0,60,-99.99,,,-99.99,,2013-03-16 21:10:00,
2013-03-16 15:03:00,50.0,37.0,-100.00,SSW,210,10.0,21.0,60,-99.99,,,-99.99,,2013-03-16 22:03:00,
2013-03-16 15:10:00,51.0,35.0,-100.00,SSW,195,10.0,15.0,54,-99.99,,,-99.99,,2013-03-16 22:10:00,
2013-03-16 16:02:00,51.0,35.0,-100.00,SSW,195,10.0,15.0,54,-99.99,,,-99.99,,2013-03-16 23:02:00,
2013-03-16 16:10:00,49.0,34.0,-100.00,SW,230,16.0,21.0,56,-99.99,,,-99.99,,2013-03-16 23:10:00,
2013-03-16 17:01:00,49.0,34.0,-100.00,SW,230,16.0,21.0,56,-99.99,,,-99.99,,2013-03-17 00:01:00,
2013-03-16 17:10:00,49.0,33.0,-100.00,SW,225,7.0,16.0,53,-99.99,,,-99.99,,2013-03-17 00:10:00,
2013-03-16 18:02:00,49.0,33.0,-100.00,SW,225,7.0,16.0,53,-99.99,,,-99.99,,2013-03-17 01:02:00,
2013-03-16 18:10:00,41.0,37.0,-100.00,SSW,200,12.0,18.0,85,-99.99,,,-99.99,,2013-03-17 01:10:00,
2013-03-16 19:02:00,41.0,37.0,-100.00,SSW,200,12.0,18.0,85,-99.99,,,-99.99,,2013-03-17 02:02:00,
2013-03-16 19:10:00,42.0,37.0,-100.00,SSE,165,6.0,10.0,82,-99.99,,,-99.99,,2013-03-17 02:10:00,
2013-03-16 20:02:00,42.0,37.0,-100.00,SSE,165,6.0,10.0,82,-99.99,,,-99.99,,2013-03-17 03:02:00,
2013-03-16 20:10:00,41.0,37.0,-100.00,SSW,200,10.0,15.0,85,-99.99,,,-99.99,,2013-03-17 03:10:00,
2013-03-16 21:03:00,41.0,37.0,-100.00,SSW,200,10.0,15.0,85,-99.99,,,-99.99,,2013-03-17 04:03:00,
2013-03-16 21:10:00,42.0,37.0,-100.00,South,180,7.0,15.0,82,-99.99,,,-99.99,,2013-03-17 04:10:00,
2013-03-16 22:02:00,42.0,37.0,-100.00,South,180,7.0,15.0,82,-99.99,,,-99.99,,2013-03-17 05:02:00,
2013-03-16 22:10:00,41.0,34.0,-100.00,SW,225,12.0,17.0,75,-99.99,,,-99.99,,2013-03-17 05:10:00,
2013-03-16 23:02:00,41.0,34.0,-100.00,SW,225,12.0,17.0,75,-99.99,,,-99.99,,2013-03-17 06:02:00,
2013-03-16 23:10:00,38.0,30.0,-100.00,West,265,7.0,28.0,72,-99.99,,,-99.99,,2013-03-17 06:10:00,